UKDR/KWG METAR and TAF weather

Enter ICAO airport designator
Station Type Date Time Source
UKDR METAR 2021/04/13 07:00 UTC NOAA

UKDR 130700Z 17003MPS 130V200 9999 SCT008 BKN026 10/07 Q1020 R18/09//65 NOSIG


Station Type Date Time Source
UKDR Decoded METAR 2021/04/13 07:00 UTC NOAA

Krivyy Rih / Dnipropetrovs'k, Ukraine (UKDR) 48-03N 033-13-12E
Apr 13, 2021 - 03:00 AM EDT / 2021.04.13 0700 UTC
Wind: from the S (170 degrees) at 7 MPH (6 KT) (direction variable):0
Visibility: greater than 7 mile(s):0
Sky conditions: mostly cloudy
Temperature: 50 F (10 C)
Dew Point: 44 F (7 C)
Relative Humidity: 81%
Pressure (altimeter): 30.12 in. Hg (1020 hPa)
ob: UKDR 130700Z 17003MPS 130V200 9999 SCT008 BKN026 10/07 Q1020 R18/09//65 NOSIG
cycle: 7

Station Type Date Time Source
UKDR TAF 2021/04/13 06:00 UTC NOAA

TAF UKDR 130505Z 1306/1406 16003MPS 4100 BR OVC007
TEMPO 1306/1309 1100 BR OVC003
TEMPO 1312/1318 2500 -RA BR OVC005
BECMG 1318/1320 2200 BR OVC007
BECMG 1320/1322 0400 FG VV002

Example: see airport list